Time;durP1;ratioP1;P1;durP2;ratioP2;P2;SDS_P1;SDS_P2;PMS_P1;PMS_P2;Temp;Humidity;BMP_temperature;BMP_pressure;BME280_temperature;BME280_humidity;BME280_pressure;Samples;Min_cycle;Max_cycle;Signal;HPM_P1;HPM_P2
2024/02/10 00:00:57;;;;;;;10.13;6.80;;;9.70;99.90;;;;;;4944863;28;20046;-80
2024/02/10 00:03:24;;;;;;;8.57;5.95;;;9.70;99.90;;;;;;4943709;28;20046;-80
2024/02/10 00:05:50;;;;;;;8.40;6.38;;;9.80;99.90;;;;;;4926332;28;20058;-79
2024/02/10 00:08:16;;;;;;;9.30;5.65;;;9.80;99.90;;;;;;4944783;28;20039;-81
2024/02/10 00:10:43;;;;;;;7.10;5.47;;;9.80;99.90;;;;;;4965566;28;20027;-75
2024/02/10 00:13:11;;;;;;;9.27;5.80;;;9.80;99.90;;;;;;4962141;28;20485;-80
2024/02/10 00:15:39;;;;;;;9.55;5.85;;;9.80;99.90;;;;;;4931188;28;21132;-75
2024/02/10 00:18:05;;;;;;;10.18;5.93;;;9.80;99.90;;;;;;4929652;28;20030;-79
2024/02/10 00:20:33;;;;;;;7.53;5.47;;;9.80;99.90;;;;;;4945815;28;20031;-80
2024/02/10 00:22:59;;;;;;;12.55;6.13;;;9.80;99.90;;;;;;4932089;28;20379;-77
2024/02/10 00:25:25;;;;;;;10.27;5.55;;;9.80;99.90;;;;;;4976998;28;20047;-77
2024/02/10 00:27:53;;;;;;;7.22;6.03;;;9.80;99.90;;;;;;4975084;28;20490;-79
2024/02/10 00:30:19;;;;;;;8.90;5.43;;;9.90;99.90;;;;;;4929323;28;20418;-80
2024/02/10 00:32:51;;;;;;;8.18;5.13;;;9.90;99.90;;;;;;4943479;28;20039;-78
2024/02/10 00:35:21;;;;;;;7.40;4.85;;;9.90;99.90;;;;;;4928913;28;20549;-79
2024/02/10 00:37:56;;;;;;;9.82;5.80;;;9.90;99.90;;;;;;4960561;28;20043;-77
2024/02/10 00:40:23;;;;;;;9.52;6.07;;;9.90;99.90;;;;;;4959679;28;20038;-77
2024/02/10 00:42:52;;;;;;;7.22;4.97;;;9.90;99.90;;;;;;4937389;28;20024;-82
2024/02/10 00:45:20;;;;;;;7.00;4.88;;;9.90;99.90;;;;;;4929137;28;20371;-79
2024/02/10 00:47:46;;;;;;;11.63;5.43;;;9.90;99.90;;;;;;4961359;28;20042;-80
2024/02/10 00:50:15;;;;;;;8.05;5.40;;;9.90;99.90;;;;;;4945076;28;20278;-79
2024/02/10 00:52:46;;;;;;;10.90;5.70;;;9.90;99.90;;;;;;4926861;28;20039;-80
2024/02/10 00:55:13;;;;;;;11.48;6.07;;;9.90;99.90;;;;;;4930424;28;20027;-79
2024/02/10 00:57:40;;;;;;;7.90;6.25;;;9.90;99.90;;;;;;4974579;28;20050;-79
2024/02/10 01:00:11;;;;;;;8.50;6.30;;;9.90;99.90;;;;;;4958226;28;20158;-77
2024/02/10 01:02:38;;;;;;;9.52;6.13;;;9.90;99.90;;;;;;4958699;28;20417;-78
2024/02/10 01:05:05;;;;;;;7.32;5.75;;;9.90;99.90;;;;;;4944130;28;20044;-79
2024/02/10 01:07:33;;;;;;;8.35;5.82;;;9.90;99.90;;;;;;4942932;28;20039;-79
2024/02/10 01:09:59;;;;;;;7.03;5.60;;;10.00;99.90;;;;;;4929150;28;20699;-79
2024/02/10 01:12:26;;;;;;;9.98;6.03;;;10.00;99.90;;;;;;4958885;28;20035;-80
2024/02/10 01:14:55;;;;;;;8.15;6.32;;;10.00;99.90;;;;;;4940396;28;20314;-80
2024/02/10 01:17:21;;;;;;;7.32;6.13;;;10.00;99.90;;;;;;4959254;28;20060;-79
2024/02/10 01:19:50;;;;;;;11.43;7.28;;;10.00;99.90;;;;;;4944146;28;20058;-80
2024/02/10 01:22:22;;;;;;;9.60;7.05;;;10.10;99.90;;;;;;4944534;28;20027;-75
2024/02/10 01:24:53;;;;;;;9.68;6.57;;;10.10;99.90;;;;;;4928480;28;20035;-78
2024/02/10 01:27:26;;;;;;;7.68;5.80;;;10.10;99.90;;;;;;4946465;28;20023;-77
2024/02/10 01:29:56;;;;;;;9.25;6.55;;;10.00;99.90;;;;;;4963514;28;20470;-80
2024/02/10 01:32:23;;;;;;;8.95;5.95;;;10.10;99.90;;;;;;4932127;28;20031;-79
2024/02/10 01:34:54;;;;;;;8.30;5.75;;;10.10;99.90;;;;;;4948611;28;20589;-79
2024/02/10 01:37:21;;;;;;;7.10;5.68;;;10.00;99.90;;;;;;4962867;28;20043;-79
2024/02/10 01:39:53;;;;;;;7.40;5.28;;;10.00;99.90;;;;;;4930657;29;20039;-78
2024/02/10 01:42:27;;;;;;;9.20;6.10;;;10.00;99.90;;;;;;4963713;28;20031;-80
2024/02/10 01:44:53;;;;;;;7.38;5.00;;;9.90;99.90;;;;;;4962802;28;20031;-79
2024/02/10 01:47:20;;;;;;;6.35;5.07;;;9.90;99.90;;;;;;4932659;28;20035;-79
2024/02/10 01:49:46;;;;;;;8.77;6.25;;;9.90;99.90;;;;;;4932181;28;20371;-79
2024/02/10 01:52:13;;;;;;;8.60;5.78;;;9.90;99.90;;;;;;4942676;28;20395;-80
2024/02/10 01:54:39;;;;;;;6.40;5.13;;;9.90;99.90;;;;;;4947342;28;20117;-76
2024/02/10 01:57:07;;;;;;;6.85;4.88;;;9.90;99.90;;;;;;4947082;28;20652;-78
2024/02/10 01:59:37;;;;;;;6.50;4.68;;;9.90;99.90;;;;;;4931908;28;20035;-79
2024/02/10 02:02:04;;;;;;;6.78;5.03;;;9.80;99.90;;;;;;4962335;28;20035;-80
2024/02/10 02:04:35;;;;;;;8.30;6.05;;;9.80;99.90;;;;;;4978336;28;20043;-77
2024/02/10 02:07:05;;;;;;;7.47;5.25;;;9.80;99.90;;;;;;4961385;28;20042;-80
2024/02/10 02:09:31;;;;;;;7.90;5.05;;;9.70;99.90;;;;;;4967180;28;20035;-79
2024/02/10 02:11:58;;;;;;;5.78;4.50;;;9.70;99.90;;;;;;4935809;28;20368;-77
2024/02/10 02:14:25;;;;;;;4.63;3.90;;;9.60;99.90;;;;;;4932310;28;20660;-76
2024/02/10 02:16:52;;;;;;;6.82;4.78;;;9.60;99.90;;;;;;4978962;28;20176;-80
2024/02/10 02:19:18;;;;;;;5.97;4.70;;;9.60;99.90;;;;;;4963816;28;20039;-78
2024/02/10 02:21:44;;;;;;;6.45;4.90;;;9.60;99.90;;;;;;4962538;28;20458;-79
2024/02/10 02:24:11;;;;;;;8.10;5.13;;;9.70;99.90;;;;;;4963295;28;20028;-81
2024/02/10 02:26:37;;;;;;;7.55;5.05;;;9.70;99.90;;;;;;4948646;28;20043;-78
2024/02/10 02:29:07;;;;;;;6.70;4.65;;;9.70;99.90;;;;;;4961803;28;20033;-78
2024/02/10 02:31:35;;;;;;;6.93;5.25;;;9.70;99.90;;;;;;4962845;28;20031;-75
2024/02/10 02:34:02;;;;;;;6.75;4.95;;;9.70;99.90;;;;;;4962664;28;20042;-80
2024/02/10 02:36:31;;;;;;;5.40;4.72;;;9.70;99.90;;;;;;4929433;28;20518;-78
2024/02/10 02:39:01;;;;;;;6.43;4.97;;;9.70;99.90;;;;;;4976218;28;20031;-79
2024/02/10 02:41:28;;;;;;;7.88;5.18;;;9.70;99.90;;;;;;4943992;28;20046;-76
2024/02/10 02:43:55;;;;;;;7.22;4.60;;;9.60;99.90;;;;;;4960133;28;20039;-76
2024/02/10 02:46:23;;;;;;;8.82;5.20;;;9.60;99.90;;;;;;4928970;28;20031;-79
2024/02/10 02:48:50;;;;;;;7.57;5.72;;;9.50;99.90;;;;;;4930497;28;20039;-75
2024/02/10 02:51:19;;;;;;;7.80;5.20;;;9.50;99.90;;;;;;4929528;28;20039;-80
2024/02/10 02:53:48;;;;;;;9.90;5.80;;;9.50;99.90;;;;;;4941994;28;20039;-77
2024/02/10 02:56:18;;;;;;;7.70;5.70;;;9.50;99.90;;;;;;4945462;28;20470;-81
2024/02/10 02:58:49;;;;;;;8.13;5.47;;;9.60;99.90;;;;;;4959130;28;20936;-78
2024/02/10 03:01:15;;;;;;;6.65;5.30;;;9.60;99.90;;;;;;4957539;28;20027;-78
2024/02/10 03:03:44;;;;;;;7.03;5.65;;;9.60;99.90;;;;;;4929791;28;20043;-79
2024/02/10 03:06:10;;;;;;;8.52;5.75;;;9.60;99.90;;;;;;4945283;28;20028;-76
2024/02/10 03:08:37;;;;;;;7.28;5.18;;;9.60;99.90;;;;;;4946292;28;20043;-79
2024/02/10 03:11:05;;;;;;;8.18;5.60;;;9.60;99.90;;;;;;4977565;28;20042;-79
2024/02/10 03:13:31;;;;;;;7.18;5.35;;;9.60;99.90;;;;;;4960782;28;20379;-79
2024/02/10 03:16:00;;;;;;;6.35;5.20;;;9.70;99.90;;;;;;4930678;28;20028;-77
2024/02/10 03:18:26;;;;;;;9.10;6.32;;;9.70;99.90;;;;;;4930474;28;20031;-78
2024/02/10 03:20:54;;;;;;;6.95;5.53;;;9.70;99.90;;;;;;4946824;28;20046;-76
2024/02/10 03:23:20;;;;;;;7.05;5.03;;;9.70;99.90;;;;;;4961909;28;21153;-78
2024/02/10 03:25:47;;;;;;;8.68;5.75;;;9.70;99.90;;;;;;4964708;28;20592;-78
2024/02/10 03:28:15;;;;;;;7.80;5.85;;;9.70;99.90;;;;;;4931134;28;20027;-79
2024/02/10 03:30:41;;;;;;;9.38;5.75;;;9.70;99.90;;;;;;4961159;28;20023;-79
2024/02/10 03:33:08;;;;;;;7.35;4.97;;;9.70;99.90;;;;;;4945992;28;20058;-78
2024/02/10 03:35:34;;;;;;;8.20;5.82;;;9.70;99.90;;;;;;4946812;28;20481;-80
2024/02/10 03:38:00;;;;;;;6.55;4.68;;;9.70;99.90;;;;;;4933169;28;20587;-79
2024/02/10 03:40:29;;;;;;;7.90;5.75;;;9.70;99.90;;;;;;4961554;28;20149;-77
2024/02/10 03:42:55;;;;;;;7.53;6.28;;;9.70;99.90;;;;;;4929309;28;20075;-78
2024/02/10 03:45:21;;;;;;;9.00;5.45;;;9.70;99.90;;;;;;4961276;28;20034;-78
2024/02/10 03:47:50;;;;;;;8.38;6.22;;;9.70;99.90;;;;;;4962750;28;20090;-78
2024/02/10 03:50:16;;;;;;;7.75;5.65;;;9.60;99.90;;;;;;4944138;28;20039;-76
2024/02/10 03:52:43;;;;;;;6.78;5.43;;;9.70;99.90;;;;;;4929757;28;20438;-76
2024/02/10 03:55:09;;;;;;;6.35;4.57;;;9.60;99.90;;;;;;4931254;28;20048;-76
2024/02/10 03:57:36;;;;;;;5.85;4.90;;;9.60;99.90;;;;;;4962538;28;20058;-77
2024/02/10 04:00:08;;;;;;;6.95;4.55;;;9.60;99.90;;;;;;4944870;28;20039;-75
2024/02/10 04:02:36;;;;;;;8.15;5.38;;;9.60;99.90;;;;;;4944991;28;20478;-78
2024/02/10 04:05:03;;;;;;;9.13;6.03;;;9.60;99.90;;;;;;4958678;28;20046;-77
2024/02/10 04:07:33;;;;;;;9.38;5.63;;;9.60;99.90;;;;;;4930294;28;20379;-75
2024/02/10 04:09:59;;;;;;;7.43;4.93;;;9.60;99.90;;;;;;4934732;28;20042;-78
2024/02/10 04:12:26;;;;;;;8.60;5.88;;;9.60;99.90;;;;;;4947038;28;20367;-75
2024/02/10 04:14:58;;;;;;;8.43;6.32;;;9.60;99.90;;;;;;4963644;28;20505;-77
2024/02/10 04:17:25;;;;;;;9.50;5.95;;;9.60;99.90;;;;;;4930812;28;20462;-77
2024/02/10 04:19:55;;;;;;;7.85;5.63;;;9.60;99.90;;;;;;4929186;28;20050;-78
2024/02/10 04:22:23;;;;;;;6.68;5.82;;;9.60;99.90;;;;;;4958903;28;20038;-74
2024/02/10 04:24:53;;;;;;;8.52;5.55;;;9.60;99.90;;;;;;4961812;28;20046;-79
2024/02/10 04:27:20;;;;;;;8.43;5.93;;;9.60;99.90;;;;;;4961205;28;20035;-77
2024/02/10 04:29:46;;;;;;;8.52;6.35;;;9.60;99.90;;;;;;4958175;28;20050;-79
2024/02/10 04:32:13;;;;;;;11.73;7.22;;;9.70;99.90;;;;;;4944361;28;20494;-77
2024/02/10 04:34:40;;;;;;;10.95;6.28;;;9.70;99.90;;;;;;4960255;28;20039;-78
2024/02/10 04:37:10;;;;;;;8.70;6.28;;;9.70;99.90;;;;;;4930769;28;20027;-77
2024/02/10 04:39:37;;;;;;;8.27;6.10;;;9.70;99.90;;;;;;4961081;28;20054;-78
2024/02/10 04:42:05;;;;;;;9.43;6.88;;;9.70;99.90;;;;;;4943742;28;20083;-78
2024/02/10 04:44:32;;;;;;;8.27;6.63;;;9.60;99.90;;;;;;4960890;28;20023;-78
2024/02/10 04:46:58;;;;;;;8.52;6.20;;;9.60;99.90;;;;;;4945575;28;20040;-78
2024/02/10 04:49:26;;;;;;;8.18;5.40;;;9.60;99.90;;;;;;4941974;28;20031;-78
2024/02/10 04:51:52;;;;;;;8.07;5.28;;;9.60;99.90;;;;;;4959871;28;20035;-74
2024/02/10 04:54:18;;;;;;;7.20;5.47;;;9.50;99.90;;;;;;4958919;28;20039;-78
2024/02/10 04:56:45;;;;;;;7.75;5.80;;;9.50;99.90;;;;;;4946148;28;20051;-76
2024/02/10 04:59:17;;;;;;;9.52;6.10;;;9.40;99.90;;;;;;4960785;28;20047;-76
2024/02/10 05:01:43;;;;;;;6.88;5.20;;;9.30;99.90;;;;;;4962503;28;20412;-77
2024/02/10 05:04:11;;;;;;;8.10;5.57;;;9.30;99.90;;;;;;4964609;28;20031;-77
2024/02/10 05:06:37;;;;;;;9.05;5.97;;;9.20;99.90;;;;;;4949788;28;20660;-78
2024/02/10 05:09:04;;;;;;;7.80;6.00;;;9.20;99.90;;;;;;4949709;28;20047;-78
2024/02/10 05:11:31;;;;;;;8.50;6.03;;;9.20;99.90;;;;;;4933687;28;20042;-79
2024/02/10 05:13:58;;;;;;;9.57;6.65;;;9.20;99.90;;;;;;4964282;28;20038;-76
2024/02/10 05:16:24;;;;;;;9.73;7.03;;;9.30;99.90;;;;;;4933799;28;20039;-76
2024/02/10 05:18:51;;;;;;;10.85;7.55;;;9.30;99.90;;;;;;4949555;28;20406;-76
2024/02/10 05:21:18;;;;;;;8.93;7.15;;;9.30;99.90;;;;;;4934816;28;20478;-76
2024/02/10 05:23:49;;;;;;;11.30;7.68;;;9.40;99.90;;;;;;4945534;28;20073;-75
2024/02/10 05:26:17;;;;;;;11.48;7.97;;;9.30;99.90;;;;;;4966050;28;20050;-78
2024/02/10 05:28:44;;;;;;;14.00;7.80;;;9.40;99.90;;;;;;4963391;28;20039;-77
2024/02/10 05:31:13;;;;;;;11.07;7.97;;;9.30;99.90;;;;;;4962921;28;20027;-76
2024/02/10 05:33:42;;;;;;;8.95;7.22;;;9.30;99.90;;;;;;4949539;28;20054;-75
2024/02/10 05:36:10;;;;;;;10.70;7.90;;;9.30;99.90;;;;;;4963455;28;20038;-76
2024/02/10 05:38:40;;;;;;;11.32;8.23;;;9.30;99.90;;;;;;4932201;28;20034;-76
2024/02/10 05:41:07;;;;;;;10.60;8.63;;;9.30;99.90;;;;;;4963247;28;20434;-76
2024/02/10 05:43:33;;;;;;;11.00;7.72;;;9.30;99.90;;;;;;4931446;28;20494;-76
2024/02/10 05:46:04;;;;;;;9.77;7.47;;;9.30;99.90;;;;;;4980044;28;20054;-76
2024/02/10 05:48:31;;;;;;;8.15;6.60;;;9.30;99.90;;;;;;4961012;28;20321;-76
2024/02/10 05:50:59;;;;;;;10.75;8.25;;;9.30;99.90;;;;;;4947584;28;20061;-77
2024/02/10 05:53:27;;;;;;;11.00;8.63;;;9.30;99.90;;;;;;4931761;28;20043;-76
2024/02/10 05:55:54;;;;;;;10.45;7.78;;;9.30;99.90;;;;;;4933368;28;20039;-75
2024/02/10 05:58:23;;;;;;;12.45;8.45;;;9.30;99.90;;;;;;4979739;28;20043;-75
2024/02/10 06:00:51;;;;;;;11.45;8.57;;;9.30;99.90;;;;;;4930060;28;20035;-76
2024/02/10 06:03:18;;;;;;;11.85;8.07;;;9.30;99.90;;;;;;4961670;28;20252;-75
2024/02/10 06:05:44;;;;;;;12.45;8.65;;;9.30;99.90;;;;;;4948552;28;20087;-76
2024/02/10 06:08:12;;;;;;;12.15;9.60;;;9.40;99.90;;;;;;4945743;28;20035;-74
2024/02/10 06:10:39;;;;;;;10.80;7.97;;;9.40;99.90;;;;;;4947736;28;20521;-77
2024/02/10 06:13:06;;;;;;;11.43;7.30;;;9.40;99.90;;;;;;4958123;28;20055;-76
2024/02/10 06:15:33;;;;;;;13.73;9.40;;;9.40;99.90;;;;;;4928997;28;20039;-76
2024/02/10 06:18:03;;;;;;;12.10;9.43;;;9.40;99.90;;;;;;4962980;28;20047;-76
2024/02/10 06:20:30;;;;;;;11.88;9.13;;;9.40;99.90;;;;;;4961242;28;20487;-75
2024/02/10 06:22:57;;;;;;;10.95;7.90;;;9.40;99.90;;;;;;4947159;28;20043;-75
2024/02/10 06:25:27;;;;;;;12.95;8.85;;;9.40;99.90;;;;;;4947338;28;20497;-75
2024/02/10 06:27:58;;;;;;;12.77;9.23;;;9.40;99.90;;;;;;4980344;28;20485;-76
2024/02/10 06:30:30;;;;;;;14.07;10.33;;;9.40;99.90;;;;;;4961667;28;20031;-74
2024/02/10 06:32:58;;;;;;;15.52;10.15;;;9.40;99.90;;;;;;4978149;28;20282;-75
2024/02/10 06:35:25;;;;;;;13.80;9.38;;;9.40;99.90;;;;;;4932042;28;20701;-76
2024/02/10 06:37:54;;;;;;;13.57;9.10;;;9.40;99.90;;;;;;4950642;28;20038;-76
2024/02/10 06:40:20;;;;;;;11.82;8.57;;;9.40;99.90;;;;;;4947676;28;20058;-75
2024/02/10 06:42:50;;;;;;;13.35;9.57;;;9.40;99.90;;;;;;4961001;28;20058;-75
2024/02/10 06:45:20;;;;;;;11.55;8.60;;;9.40;99.90;;;;;;4944307;28;20484;-76
2024/02/10 06:47:47;;;;;;;10.40;8.43;;;9.40;99.90;;;;;;4931756;28;20039;-76
2024/02/10 06:50:27;;;;;;;14.90;9.43;;;9.40;99.90;;;;;;4943203;28;20039;-75
2024/02/10 06:52:54;;;;;;;12.35;9.18;;;9.40;99.90;;;;;;4928314;28;20035;-75
2024/02/10 06:55:26;;;;;;;14.48;9.15;;;9.40;99.90;;;;;;4974803;28;20039;-77
2024/02/10 06:57:55;;;;;;;10.97;8.40;;;9.40;99.90;;;;;;4909097;28;1086601;-75
2024/02/10 07:00:22;;;;;;;13.93;8.88;;;9.50;99.90;;;;;;4947104;28;20030;-77
2024/02/10 07:02:52;;;;;;;12.40;8.68;;;9.40;99.90;;;;;;4932062;28;20655;-77
2024/02/10 07:05:19;;;;;;;12.80;9.00;;;9.40;99.90;;;;;;4948331;28;20023;-76
2024/02/10 07:07:49;;;;;;;13.45;9.65;;;9.40;99.90;;;;;;4930591;28;20496;-77
2024/02/10 07:10:17;;;;;;;12.85;9.13;;;9.40;99.90;;;;;;4965366;28;20039;-77
2024/02/10 07:12:49;;;;;;;13.02;9.07;;;9.40;99.90;;;;;;4964590;28;20035;-76
2024/02/10 07:15:23;;;;;;;12.68;9.98;;;9.40;99.90;;;;;;4964673;28;20027;-76
2024/02/10 07:17:52;;;;;;;13.73;10.23;;;9.40;99.90;;;;;;4934329;28;20027;-76
2024/02/10 07:20:25;;;;;;;13.98;10.18;;;9.40;99.90;;;;;;4964335;28;20085;-77
2024/02/10 07:22:57;;;;;;;15.63;10.80;;;9.40;99.90;;;;;;4931372;28;20035;-77
2024/02/10 07:25:29;;;;;;;17.90;11.73;;;9.40;99.90;;;;;;4931667;28;20047;-74
2024/02/10 07:28:02;;;;;;;14.68;10.15;;;9.40;99.90;;;;;;4964954;28;20398;-76
2024/02/10 07:30:33;;;;;;;14.50;9.20;;;9.40;99.90;;;;;;4962403;28;20320;-76
2024/02/10 07:33:08;;;;;;;11.60;8.95;;;9.40;99.90;;;;;;4961836;28;20046;-77
2024/02/10 07:35:38;;;;;;;14.40;9.45;;;9.50;99.90;;;;;;4977640;28;20051;-75
2024/02/10 07:38:05;;;;;;;13.63;10.63;;;9.50;99.90;;;;;;4962959;28;20042;-77
2024/02/10 07:40:31;;;;;;;14.10;10.65;;;9.50;99.90;;;;;;4946370;28;20035;-74
2024/02/10 07:42:57;;;;;;;16.30;11.15;;;9.50;99.90;;;;;;4947907;28;20046;-77
2024/02/10 07:45:24;;;;;;;17.52;12.02;;;9.50;99.90;;;;;;4979212;28;20043;-78
2024/02/10 07:47:50;;;;;;;17.38;11.25;;;9.50;99.90;;;;;;4962219;28;20027;-78
2024/02/10 07:50:17;;;;;;;14.73;10.43;;;9.50;99.90;;;;;;4928651;28;20031;-78
2024/02/10 07:52:45;;;;;;;14.98;9.90;;;9.60;99.90;;;;;;4964058;28;20501;-76
2024/02/10 07:55:12;;;;;;;12.63;9.90;;;9.60;99.90;;;;;;4948250;28;20058;-77
2024/02/10 07:57:39;;;;;;;12.25;9.68;;;9.60;99.90;;;;;;4931244;28;20046;-79
2024/02/10 08:00:09;;;;;;;12.43;10.25;;;9.60;99.90;;;;;;4961033;28;20497;-76
2024/02/10 08:02:36;;;;;;;13.73;10.68;;;9.60;99.90;;;;;;4946723;28;20042;-77
2024/02/10 08:05:04;;;;;;;15.02;10.93;;;9.60;99.90;;;;;;4962939;28;20039;-77
2024/02/10 08:07:31;;;;;;;18.63;11.85;;;9.70;99.90;;;;;;4962926;28;20415;-77
2024/02/10 08:09:58;;;;;;;15.43;10.82;;;9.70;99.90;;;;;;4963253;28;20043;-76
2024/02/10 08:12:26;;;;;;;16.42;11.85;;;9.70;99.90;;;;;;4945503;28;20030;-78
2024/02/10 08:14:58;;;;;;;16.20;11.48;;;9.70;99.90;;;;;;4948524;28;20039;-76
2024/02/10 08:17:30;;;;;;;14.38;10.73;;;9.80;99.90;;;;;;4962892;28;20046;-77
2024/02/10 08:19:57;;;;;;;12.90;9.55;;;9.80;99.90;;;;;;4963458;28;20438;-77
2024/02/10 08:22:30;;;;;;;14.18;9.80;;;9.80;99.90;;;;;;4961677;28;20045;-77
2024/02/10 08:24:58;;;;;;;13.68;9.77;;;9.80;99.90;;;;;;4960771;28;20421;-78
2024/02/10 08:27:29;;;;;;;13.75;10.55;;;9.90;99.90;;;;;;4947052;28;20502;-78
2024/02/10 08:29:57;;;;;;;13.98;10.93;;;9.90;99.90;;;;;;4930450;28;20115;-78
2024/02/10 08:32:26;;;;;;;18.10;13.65;;;9.90;99.90;;;;;;4962220;28;20047;-78
2024/02/10 08:34:53;;;;;;;14.73;11.07;;;10.00;99.90;;;;;;4962702;28;20467;-76
2024/02/10 08:37:20;;;;;;;19.67;13.52;;;10.00;99.90;;;;;;4944264;28;20525;-76
2024/02/10 08:39:47;;;;;;;16.95;10.60;;;10.00;99.90;;;;;;4947675;28;20038;-76
2024/02/10 08:42:14;;;;;;;15.73;11.13;;;10.10;99.90;;;;;;4931801;28;20039;-75
2024/02/10 08:44:45;;;;;;;15.73;11.95;;;10.10;99.90;;;;;;4960545;28;20023;-77
2024/02/10 08:47:12;;;;;;;14.25;10.43;;;10.10;99.90;;;;;;4947080;28;20039;-77
2024/02/10 08:49:39;;;;;;;17.73;11.30;;;10.20;99.90;;;;;;4931989;28;20051;-77
2024/02/10 08:52:14;;;;;;;15.85;11.45;;;10.20;99.90;;;;;;4962285;28;20400;-78
2024/02/10 08:54:40;;;;;;;17.83;11.20;;;10.20;99.90;;;;;;4944382;28;20505;-77
2024/02/10 08:57:09;;;;;;;18.13;12.45;;;10.30;99.90;;;;;;4945664;28;20047;-77
2024/02/10 08:59:40;;;;;;;18.05;12.05;;;10.30;99.90;;;;;;4961549;28;20050;-77
2024/02/10 09:02:08;;;;;;;18.92;13.88;;;10.30;99.90;;;;;;4960945;28;20047;-79
2024/02/10 09:04:34;;;;;;;20.48;14.40;;;10.30;99.90;;;;;;4931617;28;20039;-80
2024/02/10 09:07:01;;;;;;;19.38;13.48;;;10.40;99.90;;;;;;4930304;28;20047;-83
2024/02/10 09:09:28;;;;;;;19.63;15.00;;;10.40;99.90;;;;;;4932246;28;20406;-84
2024/02/10 09:11:54;;;;;;;22.33;15.38;;;10.50;99.90;;;;;;4929572;28;20043;-80
2024/02/10 09:14:21;;;;;;;23.17;17.67;;;10.40;99.90;;;;;;4945932;28;20312;-86
2024/02/10 09:16:48;;;;;;;22.08;16.48;;;10.50;99.90;;;;;;4949360;28;20031;-85
2024/02/10 09:19:18;;;;;;;27.52;19.15;;;10.50;99.90;;;;;;4934854;28;20046;-83
2024/02/10 09:21:55;;;;;;;25.30;19.02;;;10.50;99.90;;;;;;4947723;28;20341;-85
2024/02/10 09:24:23;;;;;;;27.63;19.48;;;10.60;99.90;;;;;;4947694;28;20461;-82
2024/02/10 09:26:50;;;;;;;24.40;16.80;;;10.60;99.90;;;;;;4930798;28;20175;-77
2024/02/10 09:29:18;;;;;;;23.25;17.58;;;10.70;99.90;;;;;;4961628;28;20046;-77
2024/02/10 09:31:45;;;;;;;19.50;14.55;;;10.70;99.90;;;;;;4962107;28;20031;-84
2024/02/10 09:34:12;;;;;;;22.95;16.02;;;10.80;99.90;;;;;;4931634;28;20047;-78
2024/02/10 09:36:45;;;;;;;22.10;16.05;;;10.80;99.90;;;;;;4962480;28;20058;-82
2024/02/10 09:39:16;;;;;;;22.48;17.67;;;10.90;99.90;;;;;;4961522;28;20039;-76
2024/02/10 09:41:42;;;;;;;23.20;17.67;;;11.00;99.90;;;;;;4943696;28;20043;-77
2024/02/10 09:44:14;;;;;;;18.98;15.95;;;11.00;99.90;;;;;;4963015;28;20414;-75
2024/02/10 09:46:40;;;;;;;17.77;13.48;;;11.00;99.90;;;;;;4962331;28;20030;-78
2024/02/10 09:49:13;;;;;;;20.88;15.43;;;11.10;99.90;;;;;;4965912;28;20038;-75
2024/02/10 09:51:42;;;;;;;19.60;14.50;;;11.20;99.90;;;;;;4965744;28;20039;-79
2024/02/10 09:54:11;;;;;;;17.98;13.68;;;11.30;99.90;;;;;;4967037;28;20043;-77
2024/02/10 09:56:37;;;;;;;18.92;13.00;;;11.30;99.90;;;;;;4949837;28;20386;-77
2024/02/10 09:59:10;;;;;;;20.92;14.20;;;11.40;99.90;;;;;;4965987;28;20039;-77
2024/02/10 10:01:37;;;;;;;21.35;15.48;;;11.40;99.90;;;;;;4982479;28;20031;-78
2024/02/10 10:04:10;;;;;;;17.65;13.68;;;11.40;99.90;;;;;;4973343;28;20031;-77
2024/02/10 10:06:43;;;;;;;17.30;14.40;;;11.50;99.90;;;;;;4967717;28;20391;-76
2024/02/10 10:09:18;;;;;;;17.90;14.20;;;11.60;99.90;;;;;;4951050;28;20038;-79
2024/02/10 10:11:45;;;;;;;18.23;14.02;;;11.60;99.90;;;;;;4979986;28;20062;-78
2024/02/10 10:14:16;;;;;;;15.73;12.55;;;11.70;99.90;;;;;;4965342;28;20039;-78
2024/02/10 10:17:00;;;;;;;18.42;14.00;;;11.80;99.90;;;;;;4964022;28;20043;-79
2024/02/10 10:19:27;;;;;;;15.93;12.25;;;11.90;99.90;;;;;;4947825;28;20019;-78
2024/02/10 10:21:56;;;;;;;18.08;13.77;;;12.10;99.90;;;;;;4933607;28;20034;-76
2024/02/10 10:24:24;;;;;;;15.15;12.05;;;12.20;99.90;;;;;;4949862;28;20031;-79
2024/02/10 10:26:54;;;;;;;15.07;13.48;;;12.30;99.90;;;;;;4966216;28;20027;-77
2024/02/10 10:29:22;;;;;;;14.63;12.52;;;12.40;99.90;;;;;;4932469;28;20399;-79
2024/02/10 10:31:51;;;;;;;15.57;12.23;;;12.40;99.90;;;;;;4937020;28;20953;-77
2024/02/10 10:34:19;;;;;;;15.35;12.52;;;12.40;99.90;;;;;;4934622;28;20050;-79
2024/02/10 10:36:50;;;;;;;12.30;10.32;;;12.40;99.90;;;;;;4964708;28;20494;-80
2024/02/10 10:39:17;;;;;;;11.75;9.93;;;12.50;99.90;;;;;;4933523;28;20414;-81
2024/02/10 10:41:46;;;;;;;11.43;8.95;;;12.60;99.90;;;;;;4964505;28;20039;-79
2024/02/10 10:44:16;;;;;;;12.15;10.00;;;12.60;99.90;;;;;;4918156;28;20051;-79
2024/02/10 10:46:43;;;;;;;15.38;11.70;;;12.70;99.90;;;;;;4965124;28;20275;-80
2024/02/10 10:49:09;;;;;;;10.25;9.07;;;12.70;99.90;;;;;;4964254;28;20039;-82
2024/02/10 10:52:02;;;;;;;12.82;9.13;;;12.80;99.90;;;;;;4933621;28;20027;-79
2024/02/10 10:54:37;;;;;;;9.10;8.20;;;12.80;99.90;;;;;;4946990;28;20031;-79
2024/02/10 10:57:12;;;;;;;11.82;9.18;;;12.80;99.90;;;;;;4964218;28;20054;-81
2024/02/10 10:59:40;;;;;;;11.02;9.20;;;12.90;99.90;;;;;;4947523;28;20537;-81
2024/02/10 11:02:12;;;;;;;11.65;9.23;;;12.90;99.90;;;;;;4963167;28;20027;-79
2024/02/10 11:04:39;;;;;;;10.63;9.52;;;12.80;99.90;;;;;;4948936;28;20046;-82
2024/02/10 11:07:09;;;;;;;10.55;8.85;;;12.80;99.90;;;;;;4948918;28;20901;-80
2024/02/10 11:09:54;;;;;;;10.10;8.93;;;12.80;99.90;;;;;;4936370;28;20034;-76
2024/02/10 11:12:20;;;;;;;8.70;7.80;;;12.80;99.90;;;;;;4954925;28;20050;-75
2024/02/10 11:14:53;;;;;;;9.43;8.43;;;12.80;99.90;;;;;;4962470;28;20717;-81
2024/02/10 11:17:20;;;;;;;11.63;9.10;;;12.90;99.90;;;;;;4972437;28;20027;-81
2024/02/10 11:20:09;;;;;;;10.27;7.75;;;13.00;99.90;;;;;;4964028;28;20028;-77
2024/02/10 11:22:45;;;;;;;8.77;7.45;;;13.10;99.90;;;;;;4946708;28;20052;-76
2024/02/10 11:25:12;;;;;;;9.35;7.25;;;13.10;99.90;;;;;;4963979;28;20384;-79
2024/02/10 11:27:41;;;;;;;10.43;8.52;;;13.10;99.90;;;;;;4944615;28;20034;-80
2024/02/10 11:30:08;;;;;;;7.85;7.05;;;13.20;99.90;;;;;;4953879;28;20023;-78
2024/02/10 11:32:36;;;;;;;7.95;7.13;;;13.20;99.90;;;;;;4967400;28;20035;-75
2024/02/10 11:35:03;;;;;;;9.38;7.53;;;13.30;99.90;;;;;;4978108;28;20035;-79
2024/02/10 11:37:30;;;;;;;7.85;7.05;;;13.30;99.90;;;;;;4963994;28;20490;-80
2024/02/10 11:39:57;;;;;;;9.55;7.53;;;13.30;99.90;;;;;;4964200;28;20035;-80
2024/02/10 11:42:23;;;;;;;7.05;6.40;;;13.30;99.90;;;;;;4933645;28;20532;-80
2024/02/10 11:44:53;;;;;;;7.22;6.53;;;13.30;99.90;;;;;;4964005;28;20039;-81
2024/02/10 11:47:20;;;;;;;8.77;7.35;;;13.40;99.90;;;;;;4963826;28;20493;-80
2024/02/10 11:49:46;;;;;;;7.43;6.72;;;13.40;99.90;;;;;;4963368;28;20035;-80
2024/02/10 11:52:12;;;;;;;7.60;6.05;;;13.50;99.90;;;;;;4946826;28;20041;-78
2024/02/10 11:54:39;;;;;;;7.95;7.13;;;13.50;99.90;;;;;;4964124;28;21055;-79
2024/02/10 11:57:07;;;;;;;8.45;6.97;;;13.60;99.90;;;;;;4927095;29;20043;-77
2024/02/10 11:59:36;;;;;;;7.93;7.22;;;13.60;99.90;;;;;;4962480;28;20069;-80
2024/02/10 12:02:05;;;;;;;12.38;8.93;;;13.70;99.90;;;;;;4962542;28;20064;-79
2024/02/10 12:04:34;;;;;;;7.95;6.78;;;13.60;99.90;;;;;;4948865;28;20517;-79
2024/02/10 12:07:01;;;;;;;8.93;6.47;;;13.50;99.90;;;;;;4962298;28;20035;-76
2024/02/10 12:09:27;;;;;;;6.03;5.53;;;13.50;99.90;;;;;;4960238;28;20066;-80
2024/02/10 12:11:59;;;;;;;8.18;7.03;;;13.50;99.90;;;;;;4943301;28;20479;-77
2024/02/10 12:14:27;;;;;;;8.35;7.22;;;13.60;99.90;;;;;;4946539;28;20031;-78
2024/02/10 12:17:07;;;;;;;9.02;7.63;;;13.60;99.90;;;;;;4944927;28;20451;-79
2024/02/10 12:19:37;;;;;;;7.30;6.70;;;13.60;99.90;;;;;;4944772;28;20558;-79
2024/02/10 12:22:08;;;;;;;8.93;6.70;;;13.60;99.90;;;;;;4960776;28;20058;-79
2024/02/10 12:24:34;;;;;;;8.75;7.13;;;13.60;99.90;;;;;;4962898;28;20046;-78
2024/02/10 12:27:01;;;;;;;7.15;6.20;;;13.60;99.90;;;;;;4945990;28;20031;-78
2024/02/10 12:29:30;;;;;;;8.20;6.80;;;13.60;99.90;;;;;;4966220;28;20047;-77
2024/02/10 12:31:56;;;;;;;6.30;5.80;;;13.70;99.90;;;;;;4957942;28;20035;-78
2024/02/10 12:34:23;;;;;;;8.50;6.53;;;13.80;99.90;;;;;;4931523;28;20402;-75
2024/02/10 12:36:50;;;;;;;7.05;6.25;;;13.80;99.90;;;;;;4931126;28;20035;-78
2024/02/10 12:39:18;;;;;;;6.20;5.60;;;13.80;99.90;;;;;;4947430;28;20027;-79
2024/02/10 12:41:44;;;;;;;6.43;5.82;;;13.80;99.90;;;;;;4963465;28;20050;-78
2024/02/10 12:44:11;;;;;;;5.85;4.85;;;13.80;99.90;;;;;;4961613;28;20043;-83
2024/02/10 12:46:38;;;;;;;7.32;5.32;;;13.80;99.90;;;;;;4933063;28;20035;-79
2024/02/10 12:49:08;;;;;;;5.65;5.07;;;13.90;99.90;;;;;;4944153;28;20058;-78
2024/02/10 12:51:35;;;;;;;5.75;5.15;;;13.90;99.90;;;;;;4945961;28;20027;-78